createdAt,value
2017-06-27T00:01:23.753Z,16.50
2017-06-27T00:03:51.328Z,16.40
2017-06-27T00:06:18.902Z,16.50
2017-06-27T00:08:46.493Z,16.50
2017-06-27T00:11:14.045Z,16.50
2017-06-27T00:13:41.623Z,16.50
2017-06-27T00:16:09.251Z,16.40
2017-06-27T00:18:36.801Z,16.30
2017-06-27T00:21:04.420Z,16.20
2017-06-27T00:23:31.970Z,16.20
2017-06-27T00:25:59.543Z,16.10
2017-06-27T00:28:27.090Z,16.10
2017-06-27T00:30:54.682Z,16.00
2017-06-27T00:33:23.057Z,15.90
2017-06-27T00:35:50.605Z,15.90
2017-06-27T00:38:18.175Z,15.90
2017-06-27T00:40:45.742Z,15.90
2017-06-27T00:43:13.400Z,15.90
2017-06-27T00:45:41.014Z,15.80
2017-06-27T00:48:08.562Z,15.80
2017-06-27T00:50:36.175Z,15.80
2017-06-27T00:53:03.759Z,15.70
2017-06-27T00:55:31.314Z,15.70
2017-06-27T00:57:58.890Z,15.60
2017-06-27T01:00:27.221Z,15.60
2017-06-27T01:02:54.770Z,15.60
2017-06-27T01:05:22.338Z,15.60
2017-06-27T01:07:49.895Z,15.60
2017-06-27T01:10:17.454Z,15.60
2017-06-27T01:12:45.039Z,15.50
2017-06-27T01:15:12.604Z,15.60
2017-06-27T01:17:40.206Z,15.50
2017-06-27T01:20:08.534Z,15.40
2017-06-27T01:22:36.110Z,15.40
2017-06-27T01:25:03.673Z,15.50
2017-06-27T01:27:31.339Z,15.50
2017-06-27T01:29:58.883Z,15.50
2017-06-27T01:32:26.494Z,15.60
2017-06-27T01:34:54.851Z,15.50
2017-06-27T01:37:22.481Z,15.50
2017-06-27T01:39:50.070Z,15.50
2017-06-27T01:42:17.633Z,15.50
2017-06-27T01:44:45.263Z,15.50
2017-06-27T01:47:12.864Z,15.50
2017-06-27T01:49:40.469Z,15.40
2017-06-27T01:52:08.035Z,15.50
2017-06-27T01:54:35.629Z,15.50
2017-06-27T01:57:03.373Z,15.50
2017-06-27T01:59:30.936Z,15.50
2017-06-27T02:01:58.560Z,15.60
2017-06-27T02:04:26.882Z,15.60
2017-06-27T02:06:54.472Z,15.60
2017-06-27T02:09:22.986Z,15.70
2017-06-27T02:11:51.314Z,15.70
2017-06-27T02:14:18.882Z,15.70
2017-06-27T02:16:46.441Z,15.70
2017-06-27T02:19:14.028Z,15.60
2017-06-27T02:21:41.604Z,15.60
2017-06-27T02:24:09.164Z,15.60
2017-06-27T02:26:36.735Z,15.60
2017-06-27T02:29:04.291Z,15.60
2017-06-27T02:31:32.634Z,15.50
2017-06-27T02:34:00.209Z,15.50
2017-06-27T02:36:27.786Z,15.50
2017-06-27T02:38:55.330Z,15.60
2017-06-27T02:41:22.911Z,15.70
2017-06-27T02:43:50.556Z,15.80
2017-06-27T02:46:18.150Z,15.80
2017-06-27T02:48:46.478Z,15.80
2017-06-27T02:51:14.033Z,15.80
2017-06-27T02:53:41.627Z,15.70
2017-06-27T02:56:09.191Z,15.70
2017-06-27T02:58:36.741Z,15.80
2017-06-27T03:01:04.318Z,15.90
2017-06-27T03:03:31.877Z,16.00
2017-06-27T03:05:59.430Z,16.10
2017-06-27T03:08:27.001Z,16.20
2017-06-27T03:10:54.574Z,16.30
2017-06-27T03:13:22.136Z,16.30
2017-06-27T03:15:49.915Z,16.20
2017-06-27T03:18:18.303Z,16.20
2017-06-27T03:20:46.634Z,16.20
2017-06-27T03:23:14.243Z,16.20
2017-06-27T03:25:42.609Z,16.10
2017-06-27T03:28:10.946Z,16.10
2017-06-27T03:30:38.510Z,16.10
2017-06-27T03:33:06.086Z,16.10
2017-06-27T03:35:33.660Z,16.10
2017-06-27T03:38:01.222Z,16.00
2017-06-27T03:40:28.798Z,16.00
2017-06-27T03:42:57.150Z,16.10
2017-06-27T03:45:24.697Z,16.10
2017-06-27T03:47:52.302Z,16.20
2017-06-27T03:50:20.686Z,16.30
2017-06-27T03:52:48.281Z,16.30
2017-06-27T03:55:16.502Z,16.30
2017-06-27T03:57:44.143Z,16.40
2017-06-27T04:00:11.712Z,16.40
2017-06-27T04:02:39.399Z,16.50
2017-06-27T04:05:07.009Z,16.50
2017-06-27T04:07:34.557Z,16.60
2017-06-27T04:10:02.130Z,16.70
2017-06-27T04:12:29.712Z,16.80
2017-06-27T04:14:57.297Z,16.80
2017-06-27T04:17:24.855Z,16.90
2017-06-27T04:19:52.539Z,16.90
2017-06-27T04:22:20.106Z,17.00
2017-06-27T04:24:47.653Z,17.00
2017-06-27T04:27:15.235Z,17.00
2017-06-27T04:29:42.778Z,17.10
2017-06-27T04:32:10.356Z,17.10
2017-06-27T04:34:37.942Z,17.20
2017-06-27T04:37:05.512Z,17.20
2017-06-27T04:39:33.097Z,17.30
2017-06-27T04:42:00.646Z,17.30
2017-06-27T04:44:28.219Z,17.50
2017-06-27T04:46:55.782Z,17.60
2017-06-27T04:49:23.362Z,17.70
2017-06-27T04:51:50.951Z,17.80
2017-06-27T04:54:18.530Z,17.90
2017-06-27T04:56:46.882Z,17.80
2017-06-27T04:59:14.445Z,17.80
2017-06-27T05:01:42.034Z,17.90
2017-06-27T05:04:10.361Z,18.00
2017-06-27T05:06:37.930Z,18.00
2017-06-27T05:09:05.491Z,18.10
2017-06-27T05:11:33.214Z,18.20
2017-06-27T05:14:00.779Z,18.20
2017-06-27T05:16:28.334Z,18.30
2017-06-27T05:18:55.946Z,18.40
2017-06-27T05:21:23.503Z,18.30
2017-06-27T05:23:51.078Z,18.40
2017-06-27T05:26:18.646Z,18.50
2017-06-27T05:28:46.194Z,18.60
2017-06-27T05:31:13.783Z,18.70
2017-06-27T05:33:41.387Z,18.80
2017-06-27T05:36:08.934Z,18.80
2017-06-27T05:38:36.564Z,18.90
2017-06-27T05:41:04.131Z,18.90
2017-06-27T05:43:31.706Z,18.90
2017-06-27T05:46:00.027Z,19.10
2017-06-27T05:48:27.601Z,19.10
2017-06-27T05:50:55.168Z,19.10
2017-06-27T05:53:22.730Z,19.30
2017-06-27T05:55:50.323Z,19.50
2017-06-27T05:58:18.362Z,19.60
2017-06-27T06:00:45.916Z,19.70
2017-06-27T06:03:13.506Z,19.80
2017-06-27T06:05:41.062Z,20.10
2017-06-27T06:08:08.631Z,20.30
2017-06-27T06:10:36.223Z,20.30
2017-06-27T06:13:04.580Z,20.60
2017-06-27T06:15:32.132Z,20.60
2017-06-27T06:17:59.703Z,20.80
2017-06-27T06:20:27.270Z,20.70
2017-06-27T06:22:54.877Z,20.80
2017-06-27T06:25:22.437Z,20.80
2017-06-27T06:27:50.006Z,20.80
2017-06-27T06:30:17.553Z,20.80
2017-06-27T06:32:45.142Z,20.90
2017-06-27T06:35:12.697Z,20.90
2017-06-27T06:37:40.274Z,21.00
2017-06-27T06:40:07.854Z,21.00
2017-06-27T06:42:35.425Z,21.10
2017-06-27T06:45:03.006Z,21.20
2017-06-27T06:47:31.350Z,21.10
2017-06-27T06:49:58.986Z,21.10
2017-06-27T06:52:26.587Z,21.30
2017-06-27T06:54:54.143Z,21.30
2017-06-27T06:57:21.712Z,21.40
2017-06-27T06:59:49.262Z,21.40
2017-06-27T07:02:16.880Z,21.50
2017-06-27T07:04:44.471Z,21.50
2017-06-27T07:07:12.060Z,21.50
2017-06-27T07:09:39.638Z,21.70
2017-06-27T07:12:07.219Z,21.80
2017-06-27T07:14:35.551Z,21.70
2017-06-27T07:17:03.106Z,21.60
2017-06-27T07:19:30.714Z,21.60
2017-06-27T07:21:58.272Z,21.50
2017-06-27T07:24:25.851Z,21.40
2017-06-27T07:26:53.410Z,21.20
2017-06-27T07:29:21.014Z,21.50
2017-06-27T07:31:48.589Z,21.60
2017-06-27T07:34:16.141Z,21.70
2017-06-27T07:36:43.724Z,21.90
2017-06-27T07:39:11.360Z,21.80
2017-06-27T07:41:38.943Z,21.80
2017-06-27T07:44:06.511Z,21.60
2017-06-27T07:46:34.187Z,21.40
2017-06-27T07:49:01.742Z,21.40
2017-06-27T07:51:29.305Z,21.60
2017-06-27T07:53:56.897Z,21.50
2017-06-27T07:56:25.234Z,21.60
2017-06-27T07:58:52.830Z,21.60
2017-06-27T08:01:21.239Z,21.70
2017-06-27T08:03:48.817Z,21.70
2017-06-27T08:06:16.573Z,21.70
2017-06-27T08:08:44.144Z,21.60
2017-06-27T08:11:11.694Z,21.60
2017-06-27T08:13:39.271Z,21.60
2017-06-27T08:16:06.823Z,21.60
2017-06-27T08:18:34.410Z,21.70
2017-06-27T08:21:01.971Z,21.60
2017-06-27T08:23:29.543Z,21.70
2017-06-27T08:25:57.100Z,21.40
2017-06-27T08:28:24.674Z,21.30
2017-06-27T08:30:52.410Z,21.40
2017-06-27T08:33:19.971Z,21.30
2017-06-27T08:35:47.560Z,21.20
2017-06-27T08:38:15.135Z,21.20
2017-06-27T08:40:42.699Z,21.10
2017-06-27T08:43:10.254Z,21.00
2017-06-27T08:45:38.173Z,20.80
2017-06-27T08:48:05.749Z,20.90
2017-06-27T08:50:33.302Z,21.00
2017-06-27T08:53:00.863Z,21.20
2017-06-27T08:55:28.428Z,21.40
2017-06-27T08:57:56.026Z,21.40
2017-06-27T09:00:23.602Z,21.60
2017-06-27T09:02:51.179Z,21.90
2017-06-27T09:05:20.476Z,22.50
2017-06-27T09:07:48.069Z,22.40
2017-06-27T09:10:15.622Z,22.50
2017-06-27T09:12:43.195Z,22.50
2017-06-27T09:15:10.791Z,22.10
2017-06-27T09:17:38.375Z,22.10
2017-06-27T09:20:05.939Z,22.00
2017-06-27T09:22:33.503Z,22.00
2017-06-27T09:25:01.071Z,22.10
2017-06-27T09:27:28.684Z,22.20
2017-06-27T09:29:56.384Z,22.30
2017-06-27T09:32:23.978Z,22.40
2017-06-27T09:34:52.297Z,23.00
2017-06-27T09:37:19.890Z,22.90
2017-06-27T09:39:47.455Z,23.30
2017-06-27T09:42:15.935Z,23.40
2017-06-27T09:44:43.513Z,23.40
2017-06-27T09:47:11.095Z,23.70
2017-06-27T09:49:39.442Z,23.50
2017-06-27T09:52:07.034Z,23.50
2017-06-27T09:54:35.347Z,23.60
2017-06-27T09:57:02.926Z,23.60
2017-06-27T09:59:30.509Z,23.40
2017-06-27T10:01:58.065Z,23.10
2017-06-27T10:04:25.652Z,23.00
2017-06-27T10:06:53.281Z,23.10
2017-06-27T10:09:20.861Z,23.00
2017-06-27T10:11:48.593Z,23.00
2017-06-27T10:14:16.193Z,23.20
2017-06-27T10:16:43.768Z,23.10
2017-06-27T10:19:11.349Z,23.20
2017-06-27T10:21:38.962Z,23.10
2017-06-27T10:24:06.515Z,23.40
2017-06-27T10:26:34.168Z,23.40
2017-06-27T10:29:01.771Z,23.50
2017-06-27T10:31:29.372Z,23.40
2017-06-27T10:33:57.070Z,23.60
2017-06-27T10:36:24.690Z,23.70
2017-06-27T10:38:53.010Z,23.70
2017-06-27T10:41:20.618Z,23.70
2017-06-27T10:43:48.185Z,24.10
2017-06-27T10:46:16.602Z,24.30
2017-06-27T10:48:44.191Z,24.20
2017-06-27T10:51:11.829Z,24.00
2017-06-27T10:53:39.413Z,23.80
2017-06-27T10:56:07.004Z,23.80
2017-06-27T10:58:34.727Z,23.70
2017-06-27T11:01:02.324Z,23.90
2017-06-27T11:03:29.930Z,24.00
2017-06-27T11:05:57.507Z,24.20
2017-06-27T11:08:25.070Z,24.00
2017-06-27T11:10:52.743Z,23.90
2017-06-27T11:13:20.305Z,23.50
2017-06-27T11:15:47.883Z,23.30
2017-06-27T11:18:15.467Z,23.40
2017-06-27T11:20:43.029Z,23.40
2017-06-27T11:23:10.607Z,23.40
2017-06-27T11:25:38.172Z,23.20
2017-06-27T11:28:06.103Z,22.90
2017-06-27T11:30:33.757Z,22.70
2017-06-27T11:33:06.464Z,22.50
2017-06-27T11:35:34.035Z,22.40
2017-06-27T11:38:01.971Z,22.30
2017-06-27T11:40:29.538Z,22.20
2017-06-27T11:42:57.103Z,22.00
2017-06-27T11:45:24.694Z,22.00
2017-06-27T11:47:52.281Z,22.00
2017-06-27T11:50:19.872Z,21.80
2017-06-27T11:52:47.433Z,21.70
2017-06-27T11:55:15.071Z,21.60
2017-06-27T11:57:43.437Z,21.60
2017-06-27T12:00:22.679Z,21.60
2017-06-27T12:02:51.128Z,21.60
2017-06-27T12:05:30.455Z,21.50
2017-06-27T12:07:58.062Z,21.50
2017-06-27T12:10:25.631Z,21.60
2017-06-27T12:12:53.996Z,21.80
2017-06-27T12:15:21.609Z,21.80
2017-06-27T12:17:49.202Z,22.10
2017-06-27T12:20:16.792Z,22.50
2017-06-27T12:22:44.381Z,22.80
2017-06-27T12:25:12.159Z,22.80
2017-06-27T12:27:39.794Z,23.10
2017-06-27T12:30:08.367Z,23.00
2017-06-27T12:32:35.971Z,23.00
2017-06-27T12:35:03.530Z,23.20
2017-06-27T12:37:31.230Z,23.30
2017-06-27T12:39:59.112Z,23.40
2017-06-27T12:42:26.713Z,23.80
2017-06-27T12:44:54.379Z,24.00
2017-06-27T12:47:21.993Z,24.20
2017-06-27T12:49:49.647Z,23.90
2017-06-27T12:52:17.405Z,24.00
2017-06-27T12:54:45.208Z,23.90
2017-06-27T12:57:13.156Z,23.80
2017-06-27T12:59:40.919Z,24.10
2017-06-27T13:02:08.761Z,24.30
2017-06-27T13:04:36.373Z,24.50
2017-06-27T13:07:03.951Z,24.80
2017-06-27T13:09:31.531Z,24.80
2017-06-27T13:11:59.108Z,25.20
2017-06-27T13:14:26.730Z,25.40
2017-06-27T13:16:54.318Z,25.80
2017-06-27T13:19:21.925Z,26.10
2017-06-27T13:21:49.503Z,26.30
2017-06-27T13:24:17.058Z,26.70
2017-06-27T13:26:44.660Z,26.40
2017-06-27T13:29:12.227Z,26.50
2017-06-27T13:31:39.830Z,26.30
2017-06-27T13:34:07.494Z,26.60
2017-06-27T13:36:35.057Z,26.40
2017-06-27T13:39:02.629Z,26.50
2017-06-27T13:41:30.214Z,26.20
2017-06-27T13:43:57.794Z,26.20
2017-06-27T13:46:25.364Z,26.00
2017-06-27T13:48:53.730Z,26.20
2017-06-27T13:51:21.319Z,26.10
2017-06-27T13:53:49.652Z,25.80
2017-06-27T13:56:17.258Z,25.80
2017-06-27T13:58:44.846Z,25.80
2017-06-27T14:01:12.423Z,26.00
2017-06-27T14:03:40.775Z,25.30
2017-06-27T14:06:08.394Z,25.30
2017-06-27T14:08:35.985Z,25.10
2017-06-27T14:11:03.535Z,25.20
2017-06-27T14:13:31.119Z,25.00
2017-06-27T14:15:58.758Z,24.80
2017-06-27T14:18:26.366Z,24.70
2017-06-27T14:20:54.189Z,24.60
2017-06-27T14:23:21.780Z,24.40
2017-06-27T14:25:49.717Z,24.20
2017-06-27T14:28:17.334Z,23.90
2017-06-27T14:30:44.902Z,23.90
2017-06-27T14:33:12.511Z,23.90
2017-06-27T14:35:40.041Z,24.00
2017-06-27T14:38:07.610Z,23.90
2017-06-27T14:40:35.208Z,23.80
2017-06-27T14:43:02.875Z,23.80
2017-06-27T14:45:30.467Z,23.60
2017-06-27T14:47:58.040Z,23.70
2017-06-27T14:50:25.618Z,23.70
2017-06-27T14:52:53.985Z,23.50
2017-06-27T14:55:22.334Z,23.40
2017-06-27T14:57:49.900Z,23.40
2017-06-27T15:00:17.500Z,23.40
2017-06-27T15:02:45.148Z,23.40
2017-06-27T15:05:13.629Z,23.00
2017-06-27T15:07:41.181Z,23.00
2017-06-27T15:10:08.772Z,22.80
2017-06-27T15:12:37.118Z,22.80
2017-06-27T15:15:04.728Z,22.80
2017-06-27T15:17:32.315Z,22.80
2017-06-27T15:19:59.886Z,22.90
2017-06-27T15:22:27.465Z,23.00
2017-06-27T15:24:55.039Z,23.10
2017-06-27T15:27:22.616Z,23.30
2017-06-27T15:29:50.204Z,23.40
2017-06-27T15:32:17.835Z,23.50
2017-06-27T15:34:45.511Z,23.50
2017-06-27T15:37:13.085Z,23.60
2017-06-27T15:39:40.670Z,23.70
2017-06-27T15:42:08.274Z,23.80
2017-06-27T15:44:35.857Z,23.90
2017-06-27T15:47:03.435Z,24.20
2017-06-27T15:49:31.025Z,24.50
2017-06-27T15:51:58.587Z,24.80
2017-06-27T15:54:26.180Z,25.30
2017-06-27T15:56:53.800Z,25.60
2017-06-27T15:59:21.391Z,25.50
2017-06-27T16:01:49.795Z,25.90
2017-06-27T16:04:17.454Z,25.90
2017-06-27T16:06:45.807Z,26.10
2017-06-27T16:09:13.382Z,26.00
2017-06-27T16:11:40.957Z,26.20
2017-06-27T16:14:08.730Z,26.20
2017-06-27T16:16:36.332Z,26.40
2017-06-27T16:19:04.385Z,26.40
2017-06-27T16:21:31.960Z,26.00
2017-06-27T16:23:59.562Z,25.60
2017-06-27T16:26:27.224Z,25.30
2017-06-27T16:28:54.801Z,25.10
2017-06-27T16:31:23.156Z,25.20
2017-06-27T16:33:50.714Z,25.20
2017-06-27T16:36:18.278Z,25.30
2017-06-27T16:38:45.947Z,25.50
2017-06-27T16:41:13.515Z,25.30
2017-06-27T16:43:41.132Z,25.30
2017-06-27T16:46:08.771Z,25.00
2017-06-27T16:48:36.396Z,25.00
2017-06-27T16:51:04.099Z,25.00
2017-06-27T16:53:32.460Z,24.90
2017-06-27T16:56:00.826Z,24.80
2017-06-27T16:58:28.447Z,24.80
2017-06-27T17:00:56.017Z,24.70
2017-06-27T17:03:23.639Z,24.60
2017-06-27T17:05:52.001Z,24.40
2017-06-27T17:08:19.558Z,24.30
2017-06-27T17:10:47.148Z,24.20
2017-06-27T17:13:15.474Z,24.00
2017-06-27T17:15:43.053Z,24.00
2017-06-27T17:18:10.644Z,24.10
2017-06-27T17:20:38.268Z,24.00
2017-06-27T17:23:05.821Z,23.90
2017-06-27T17:25:33.416Z,23.90
2017-06-27T17:28:01.189Z,23.70
2017-06-27T17:30:28.748Z,23.60
2017-06-27T17:32:56.330Z,23.50
2017-06-27T17:35:24.670Z,23.30
2017-06-27T17:37:55.309Z,23.30
2017-06-27T17:40:23.141Z,23.30
2017-06-27T17:42:51.635Z,23.30
2017-06-27T17:45:19.206Z,23.30
2017-06-27T17:47:46.859Z,23.30
2017-06-27T17:50:14.526Z,23.30
2017-06-27T17:52:42.159Z,23.30
2017-06-27T17:55:09.762Z,23.30
2017-06-27T17:57:37.343Z,23.30
2017-06-27T18:00:05.154Z,23.30
2017-06-27T18:02:32.803Z,23.20
2017-06-27T18:05:00.392Z,23.20
2017-06-27T18:07:28.767Z,23.10
2017-06-27T18:09:56.397Z,23.10
2017-06-27T18:12:24.578Z,23.10
2017-06-27T18:14:52.164Z,23.00
2017-06-27T18:17:19.757Z,23.00
2017-06-27T18:19:47.339Z,22.90
2017-06-27T18:22:14.914Z,22.80
2017-06-27T18:24:42.528Z,22.70
2017-06-27T18:27:10.885Z,22.30
2017-06-27T18:29:38.460Z,22.30
2017-06-27T18:32:06.116Z,22.20
2017-06-27T18:34:34.041Z,22.10
2017-06-27T18:37:01.613Z,22.10
2017-06-27T18:39:29.181Z,22.00
2017-06-27T18:41:56.822Z,22.00
2017-06-27T18:44:24.455Z,21.90
2017-06-27T18:46:52.263Z,21.90
2017-06-27T18:49:19.898Z,21.80
2017-06-27T18:51:48.502Z,21.70
2017-06-27T18:54:16.073Z,21.60
2017-06-27T18:56:43.944Z,21.60
2017-06-27T18:59:11.916Z,21.60
2017-06-27T19:01:40.195Z,21.50
2017-06-27T19:04:07.811Z,21.40
2017-06-27T19:06:35.505Z,21.40
2017-06-27T19:09:03.140Z,21.30
2017-06-27T19:11:31.578Z,21.30
2017-06-27T19:13:59.328Z,21.20
2017-06-27T19:16:27.233Z,21.20
2017-06-27T19:18:55.170Z,21.20
2017-06-27T19:21:23.243Z,21.20
2017-06-27T19:23:51.316Z,21.20
2017-06-27T19:26:20.094Z,21.10
2017-06-27T19:28:47.898Z,21.10
2017-06-27T19:31:16.651Z,20.90
2017-06-27T19:33:44.725Z,20.90
2017-06-27T19:36:12.596Z,20.90
2017-06-27T19:38:40.244Z,20.80
2017-06-27T19:41:08.056Z,20.80
2017-06-27T19:43:35.754Z,20.80
2017-06-27T19:46:04.586Z,20.70
2017-06-27T19:48:32.762Z,20.70
2017-06-27T19:51:00.834Z,20.60
2017-06-27T19:53:28.907Z,20.50
2017-06-27T19:55:56.980Z,20.50
2017-06-27T19:58:25.099Z,20.40
2017-06-27T20:00:53.845Z,20.30
2017-06-27T20:03:21.920Z,20.20
2017-06-27T20:05:49.908Z,20.20
2017-06-27T20:08:17.966Z,20.20
2017-06-27T20:10:46.039Z,20.20
2017-06-27T20:13:14.114Z,20.20
2017-06-27T20:15:42.085Z,20.10
2017-06-27T20:18:09.889Z,20.20
2017-06-27T20:20:37.824Z,20.10
2017-06-27T20:23:06.720Z,20.20
2017-06-27T20:25:34.389Z,20.20
2017-06-27T20:28:02.565Z,20.20
2017-06-27T20:30:30.167Z,20.20
2017-06-27T20:32:58.197Z,20.20
2017-06-27T20:35:27.092Z,20.10
2017-06-27T20:37:54.713Z,20.10
2017-06-27T20:40:23.439Z,19.90
2017-06-27T20:42:51.522Z,20.00
2017-06-27T20:45:19.587Z,19.90
2017-06-27T20:47:47.389Z,19.90
2017-06-27T20:50:15.904Z,19.90
2017-06-27T20:52:44.273Z,19.90
2017-06-27T20:55:11.846Z,19.90
2017-06-27T20:57:40.172Z,19.90
2017-06-27T21:00:07.760Z,19.90
2017-06-27T21:02:35.341Z,19.80
2017-06-27T21:05:03.682Z,19.90
2017-06-27T21:07:31.271Z,19.90
2017-06-27T21:09:58.863Z,19.90
2017-06-27T21:12:27.216Z,20.00
2017-06-27T21:14:54.844Z,20.00
2017-06-27T21:17:22.487Z,20.10
2017-06-27T21:19:50.068Z,20.10
2017-06-27T21:22:17.636Z,20.10
2017-06-27T21:24:45.216Z,20.10
2017-06-27T21:27:12.862Z,20.10
2017-06-27T21:29:40.522Z,20.10
2017-06-27T21:32:08.107Z,20.00
2017-06-27T21:34:35.674Z,20.00
2017-06-27T21:37:03.787Z,20.00
2017-06-27T21:39:31.353Z,20.00
2017-06-27T21:41:58.941Z,19.90
2017-06-27T21:44:26.541Z,19.90
2017-06-27T21:46:54.106Z,19.80
2017-06-27T21:49:21.692Z,19.80
2017-06-27T21:51:50.038Z,19.70
2017-06-27T21:54:17.622Z,19.70
2017-06-27T21:56:45.218Z,19.70
2017-06-27T21:59:12.820Z,19.60
2017-06-27T22:01:40.463Z,19.60
2017-06-27T22:04:08.062Z,19.60
2017-06-27T22:06:35.666Z,19.60
2017-06-27T22:09:03.238Z,19.60
2017-06-27T22:11:30.833Z,19.50
2017-06-27T22:13:58.523Z,19.60
2017-06-27T22:16:26.098Z,19.50
2017-06-27T22:18:54.451Z,19.50
2017-06-27T22:21:22.070Z,19.50
2017-06-27T22:23:49.634Z,19.50
2017-06-27T22:26:17.350Z,19.50
2017-06-27T22:28:44.939Z,19.50
2017-06-27T22:31:13.268Z,19.50
2017-06-27T22:33:41.921Z,19.50
2017-06-27T22:36:09.483Z,19.50
2017-06-27T22:38:37.109Z,19.50
2017-06-27T22:41:04.773Z,19.50
2017-06-27T22:43:32.361Z,19.40
2017-06-27T22:46:00.733Z,19.40
2017-06-27T22:48:28.293Z,19.40
2017-06-27T22:50:56.626Z,19.40
2017-06-27T22:53:24.238Z,19.40
2017-06-27T22:55:52.586Z,19.40
2017-06-27T22:58:20.173Z,19.40
2017-06-27T23:00:47.753Z,19.40
2017-06-27T23:03:16.122Z,19.40
2017-06-27T23:05:43.719Z,19.40
2017-06-27T23:08:11.475Z,19.50
2017-06-27T23:10:39.082Z,19.40
2017-06-27T23:13:06.822Z,19.40
2017-06-27T23:15:34.379Z,19.40
2017-06-27T23:18:02.153Z,19.40
2017-06-27T23:20:29.707Z,19.40
2017-06-27T23:22:57.302Z,19.40
2017-06-27T23:25:24.954Z,19.40
2017-06-27T23:27:53.450Z,19.40
2017-06-27T23:30:21.073Z,19.40
2017-06-27T23:32:48.679Z,19.50
2017-06-27T23:35:16.244Z,19.40
2017-06-27T23:37:43.826Z,19.40
2017-06-27T23:40:12.197Z,19.40
2017-06-27T23:42:39.757Z,19.40
2017-06-27T23:45:07.325Z,19.40
2017-06-27T23:47:35.578Z,19.40
2017-06-27T23:50:03.190Z,19.40
2017-06-27T23:52:31.538Z,19.30
2017-06-27T23:54:59.102Z,19.30
2017-06-27T23:57:26.695Z,19.20
2017-06-27T23:59:54.250Z,19.20
